createdAt,value
2023-04-22T00:01:21.378Z,5.10
2023-04-22T00:03:49.308Z,5.75
2023-04-22T00:06:17.450Z,5.25
2023-04-22T00:08:45.361Z,5.00
2023-04-22T00:11:13.255Z,4.53
2023-04-22T00:13:42.329Z,4.95
2023-04-22T00:16:10.126Z,4.93
2023-04-22T00:18:38.242Z,5.07
2023-04-22T00:21:07.529Z,5.72
2023-04-22T00:23:35.440Z,5.85
2023-04-22T00:26:03.707Z,5.10
2023-04-22T00:28:31.712Z,4.68
2023-04-22T00:31:03.426Z,4.97
2023-04-22T00:33:31.512Z,5.20
2023-04-22T00:35:59.630Z,4.82
2023-04-22T00:38:27.445Z,5.30
2023-04-22T00:40:55.304Z,5.38
2023-04-22T00:43:23.127Z,4.90
2023-04-22T00:45:51.103Z,5.57
2023-04-22T00:48:20.879Z,4.93
2023-04-22T00:50:48.705Z,6.75
2023-04-22T00:53:16.579Z,4.80
2023-04-22T00:55:44.388Z,5.45
2023-04-22T00:58:12.359Z,4.68
2023-04-22T01:00:40.192Z,5.20
2023-04-22T01:03:08.807Z,4.68
2023-04-22T01:05:39.302Z,5.15
2023-04-22T01:08:07.123Z,5.47
2023-04-22T01:10:35.273Z,4.50
2023-04-22T01:13:03.474Z,4.90
2023-04-22T01:15:31.344Z,4.47
2023-04-22T01:18:00.205Z,4.53
2023-04-22T01:20:29.770Z,4.70
2023-04-22T01:23:04.320Z,4.40
2023-04-22T01:25:34.273Z,5.40
2023-04-22T01:28:02.817Z,4.72
2023-04-22T01:30:30.662Z,5.40
2023-04-22T01:32:58.552Z,4.50
2023-04-22T01:35:26.633Z,5.15
2023-04-22T01:37:54.510Z,5.00
2023-04-22T01:40:23.826Z,4.55
2023-04-22T01:42:53.282Z,4.53
2023-04-22T01:45:21.174Z,4.72
2023-04-22T01:47:49.203Z,4.90
2023-04-22T01:50:17.001Z,4.95
2023-04-22T01:52:45.080Z,5.22
2023-04-22T01:55:13.220Z,4.93
2023-04-22T01:57:41.400Z,4.82
2023-04-22T02:00:11.872Z,4.55
2023-04-22T02:02:39.767Z,4.57
2023-04-22T02:05:09.099Z,4.70
2023-04-22T02:07:37.428Z,5.07
2023-04-22T02:10:05.562Z,4.43
2023-04-22T02:12:33.383Z,4.47
2023-04-22T02:15:01.539Z,4.97
2023-04-22T02:17:31.403Z,5.03
2023-04-22T02:19:59.496Z,5.07
2023-04-22T02:22:29.508Z,5.38
2023-04-22T02:24:57.321Z,4.90
2023-04-22T02:27:25.242Z,4.88
2023-04-22T02:29:53.422Z,4.97
2023-04-22T02:35:02.149Z,4.63
2023-04-22T02:37:29.975Z,4.95
2023-04-22T02:39:57.952Z,4.95
2023-04-22T02:42:26.141Z,6.82
2023-04-22T02:44:53.908Z,5.22
2023-04-22T02:47:22.090Z,4.78
2023-04-22T02:49:50.033Z,4.68
2023-04-22T02:52:19.237Z,4.85
2023-04-22T02:54:47.001Z,4.68
2023-04-22T02:57:14.865Z,5.35
2023-04-22T02:59:42.772Z,5.03
2023-04-22T03:02:11.413Z,5.45
2023-04-22T03:04:39.361Z,5.40
2023-04-22T03:07:07.246Z,5.15
2023-04-22T03:09:36.401Z,5.50
2023-04-22T03:12:04.432Z,4.97
2023-04-22T03:14:32.263Z,5.30
2023-04-22T03:17:00.135Z,4.88
2023-04-22T03:19:28.216Z,4.80
2023-04-22T03:21:56.515Z,5.15
2023-04-22T03:24:24.286Z,5.10
2023-04-22T03:26:53.528Z,5.68
2023-04-22T03:29:21.372Z,4.53
2023-04-22T03:31:49.304Z,5.28
2023-04-22T03:34:17.458Z,5.15
2023-04-22T03:36:45.279Z,5.28
2023-04-22T03:39:13.039Z,5.30
2023-04-22T03:41:40.929Z,5.18
2023-04-22T03:44:10.644Z,5.78
2023-04-22T03:46:38.476Z,4.90
2023-04-22T03:49:06.807Z,4.80
2023-04-22T03:51:34.642Z,4.85
2023-04-22T03:54:02.486Z,5.00
2023-04-22T03:56:30.263Z,6.00
2023-04-22T03:58:58.112Z,5.35
2023-04-22T04:01:27.547Z,5.00
2023-04-22T04:03:55.523Z,5.32
2023-04-22T04:06:23.415Z,5.18
2023-04-22T04:08:51.239Z,5.05
2023-04-22T04:11:19.092Z,5.13
2023-04-22T04:13:46.903Z,5.10
2023-04-22T04:16:14.743Z,5.65
2023-04-22T04:18:44.174Z,4.85
2023-04-22T04:21:11.983Z,4.93
2023-04-22T04:23:40.410Z,5.20
2023-04-22T04:26:08.291Z,6.13
2023-04-22T04:28:36.202Z,5.32
2023-04-22T04:31:04.033Z,4.97
2023-04-22T04:33:32.882Z,5.10
2023-04-22T04:36:02.032Z,5.50
2023-04-22T04:38:29.968Z,5.57
2023-04-22T04:40:58.152Z,5.60
2023-04-22T04:43:27.034Z,5.57
2023-04-22T04:45:54.831Z,5.20
2023-04-22T04:48:25.197Z,5.45
2023-04-22T04:50:54.249Z,4.93
2023-04-22T04:53:24.023Z,4.95
2023-04-22T04:55:51.856Z,4.78
2023-04-22T04:58:19.634Z,4.93
2023-04-22T05:00:47.392Z,5.00
2023-04-22T05:03:15.416Z,5.35
2023-04-22T05:05:43.387Z,4.95
2023-04-22T05:08:11.172Z,4.80
2023-04-22T05:10:40.819Z,4.68
2023-04-22T05:13:08.781Z,4.40
2023-04-22T05:15:36.658Z,4.68
2023-04-22T05:18:05.961Z,4.43
2023-04-22T05:20:36.121Z,4.60
2023-04-22T05:23:04.177Z,4.70
2023-04-22T05:25:32.191Z,4.30
2023-04-22T05:28:03.364Z,4.30
2023-04-22T05:30:31.121Z,4.45
2023-04-22T05:32:59.026Z,3.80
2023-04-22T05:35:26.826Z,4.00
2023-04-22T05:37:54.628Z,3.42
2023-04-22T05:40:22.652Z,3.80
2023-04-22T05:42:50.457Z,3.78
2023-04-22T05:45:20.284Z,3.63
2023-04-22T05:47:48.265Z,3.60
2023-04-22T05:50:16.241Z,3.67
2023-04-22T05:52:43.977Z,3.72
2023-04-22T05:55:11.877Z,3.38
2023-04-22T05:57:39.705Z,3.40
2023-04-22T06:00:09.288Z,3.20
2023-04-22T06:02:38.549Z,3.42
2023-04-22T06:05:07.605Z,3.90
2023-04-22T06:07:35.680Z,3.45
2023-04-22T06:12:51.256Z,3.25
2023-04-22T06:15:19.164Z,3.80
2023-04-22T06:17:49.326Z,3.13
2023-04-22T06:20:17.165Z,2.63
2023-04-22T06:22:45.098Z,3.08
2023-04-22T06:25:12.935Z,3.35
2023-04-22T06:27:40.972Z,3.17
2023-04-22T06:30:10.044Z,2.97
2023-04-22T06:32:37.905Z,2.80
2023-04-22T06:35:08.378Z,2.78
2023-04-22T06:37:36.877Z,3.00
2023-04-22T06:40:05.107Z,2.83
2023-04-22T06:42:32.971Z,3.63
2023-04-22T06:45:00.750Z,3.05
2023-04-22T06:47:28.694Z,2.63
2023-04-22T06:49:56.615Z,3.30
2023-04-22T06:52:26.194Z,2.78
2023-04-22T06:54:53.929Z,2.55
2023-04-22T06:57:21.777Z,3.20
2023-04-22T06:59:49.538Z,3.72
2023-04-22T07:02:17.853Z,3.55
2023-04-22T07:04:45.861Z,3.50
2023-04-22T07:10:11.772Z,4.00
2023-04-22T07:12:39.567Z,3.05
2023-04-22T07:15:08.894Z,3.38
2023-04-22T07:17:36.726Z,2.70
2023-04-22T07:20:04.822Z,3.13
2023-04-22T07:22:32.662Z,2.75
2023-04-22T07:25:00.395Z,3.50
2023-04-22T07:27:29.621Z,2.65
2023-04-22T07:29:57.464Z,2.33
2023-04-22T07:32:25.319Z,2.53
2023-04-22T07:34:53.116Z,2.55
2023-04-22T07:37:22.487Z,2.42
2023-04-22T07:39:50.245Z,2.13
2023-04-22T07:42:18.163Z,2.50
2023-04-22T07:44:47.334Z,2.33
2023-04-22T07:47:15.129Z,2.50
2023-04-22T07:49:43.435Z,2.20
2023-04-22T07:52:11.356Z,2.05
2023-04-22T07:54:39.153Z,2.35
2023-04-22T07:57:06.979Z,2.22
2023-04-22T07:59:34.860Z,2.28
2023-04-22T08:02:04.305Z,2.10
2023-04-22T08:04:32.383Z,2.10
2023-04-22T08:07:09.193Z,1.80
2023-04-22T08:09:45.308Z,2.35
2023-04-22T08:12:14.500Z,1.98
2023-04-22T08:14:42.282Z,2.35
2023-04-22T08:17:11.444Z,1.90
2023-04-22T08:19:39.642Z,2.30
2023-04-22T08:22:08.190Z,2.00
2023-04-22T08:24:36.194Z,1.77
2023-04-22T08:27:04.069Z,1.90
2023-04-22T08:29:34.120Z,2.00
2023-04-22T08:32:02.052Z,1.60
2023-04-22T08:34:31.218Z,2.05
2023-04-22T08:36:59.181Z,1.88
2023-04-22T08:39:27.081Z,1.92
2023-04-22T08:41:56.266Z,1.80
2023-04-22T08:44:24.121Z,1.73
2023-04-22T08:46:52.812Z,1.77
2023-04-22T08:49:22.411Z,1.60
2023-04-22T08:51:53.093Z,1.88
2023-04-22T08:54:21.076Z,1.27
2023-04-22T08:56:51.451Z,1.42
2023-04-22T08:59:21.243Z,1.70
2023-04-22T09:01:53.385Z,2.22
2023-04-22T09:04:21.489Z,2.03
2023-04-22T09:06:50.892Z,2.13
2023-04-22T09:09:20.447Z,1.83
2023-04-22T09:11:48.273Z,1.50
2023-04-22T09:14:17.626Z,1.52
2023-04-22T09:16:49.272Z,1.70
2023-04-22T09:19:17.171Z,1.63
2023-04-22T09:21:49.103Z,1.30
2023-04-22T09:24:20.624Z,1.30
2023-04-22T09:26:48.976Z,1.40
2023-04-22T09:29:18.042Z,1.20
2023-04-22T09:31:49.791Z,1.27
2023-04-22T09:34:17.848Z,1.20
2023-04-22T09:36:46.871Z,1.38
2023-04-22T09:39:14.951Z,1.42
2023-04-22T09:41:44.334Z,1.30
2023-04-22T09:44:16.190Z,1.83
2023-04-22T09:46:44.938Z,1.40
2023-04-22T09:49:13.304Z,1.13
2023-04-22T09:51:42.840Z,1.45
2023-04-22T09:54:12.151Z,1.35
2023-04-22T09:56:49.666Z,1.40
2023-04-22T09:59:22.701Z,1.27
2023-04-22T10:01:54.748Z,1.20
2023-04-22T10:04:23.455Z,1.15
2023-04-22T10:06:51.953Z,1.10
2023-04-22T10:09:21.427Z,1.20
2023-04-22T10:11:52.473Z,1.20
2023-04-22T10:14:20.267Z,1.15
2023-04-22T10:16:49.338Z,1.10
2023-04-22T10:19:22.038Z,1.23
2023-04-22T10:21:54.742Z,0.90
2023-04-22T10:24:22.594Z,1.10
2023-04-22T10:26:56.875Z,1.00
2023-04-22T10:29:26.261Z,1.20
2023-04-22T10:31:58.337Z,1.02
2023-04-22T10:34:26.672Z,1.00
2023-04-22T10:37:00.081Z,1.33
2023-04-22T10:39:29.442Z,0.80
2023-04-22T10:42:12.844Z,1.13
2023-04-22T10:44:49.091Z,1.30
2023-04-22T10:47:27.264Z,1.00
2023-04-22T10:50:18.468Z,1.20
2023-04-22T10:52:49.773Z,1.00
2023-04-22T10:55:18.109Z,0.90
2023-04-22T10:57:49.437Z,0.90
2023-04-22T11:03:18.030Z,0.85
2023-04-22T11:05:46.430Z,1.23
2023-04-22T11:08:20.453Z,1.10
2023-04-22T11:10:49.554Z,4.15
2023-04-22T11:13:21.156Z,1.05
2023-04-22T11:15:51.034Z,0.75
2023-04-22T11:18:21.229Z,1.20
2023-04-22T11:20:50.687Z,1.10
2023-04-22T11:23:20.693Z,1.30
2023-04-22T11:25:48.408Z,1.35
2023-04-22T11:28:16.282Z,0.93
2023-04-22T11:30:45.511Z,0.93
2023-04-22T11:33:16.601Z,0.82
2023-04-22T11:35:44.703Z,1.13
2023-04-22T11:38:12.455Z,1.50
2023-04-22T11:40:45.061Z,0.90
2023-04-22T11:43:14.720Z,1.33
2023-04-22T11:45:42.838Z,0.93
2023-04-22T11:48:12.546Z,0.90
2023-04-22T11:50:42.228Z,1.17
2023-04-22T11:53:16.108Z,1.02
2023-04-22T11:55:45.381Z,1.00
2023-04-22T11:58:15.416Z,1.10
2023-04-22T12:00:44.910Z,1.10
2023-04-22T12:03:16.918Z,1.02
2023-04-22T12:05:46.734Z,0.90
2023-04-22T12:08:17.797Z,0.85
2023-04-22T12:10:46.992Z,0.82
2023-04-22T12:13:21.989Z,0.80
2023-04-22T12:15:50.690Z,0.88
2023-04-22T12:18:29.653Z,0.80
2023-04-22T12:21:00.695Z,1.13
2023-04-22T12:23:29.494Z,1.13
2023-04-22T12:25:57.323Z,1.10
2023-04-22T12:28:25.620Z,1.00
2023-04-22T12:30:53.436Z,0.90
2023-04-22T12:33:22.729Z,1.33
2023-04-22T12:35:52.673Z,1.00
2023-04-22T12:38:20.883Z,1.10
2023-04-22T12:40:48.653Z,1.00
2023-04-22T12:43:16.524Z,1.02
2023-04-22T12:45:44.444Z,1.27
2023-04-22T12:48:12.202Z,1.15
2023-04-22T12:50:42.252Z,1.20
2023-04-22T12:53:10.535Z,1.42
2023-04-22T12:55:38.460Z,1.17
2023-04-22T12:58:06.353Z,1.15
2023-04-22T13:00:34.211Z,1.20
2023-04-22T13:03:02.068Z,1.25
2023-04-22T13:05:29.961Z,1.23
2023-04-22T13:08:06.586Z,1.30
2023-04-22T13:10:36.179Z,1.58
2023-04-22T13:13:17.507Z,1.20
2023-04-22T13:15:47.489Z,1.20
2023-04-22T13:18:16.190Z,1.50
2023-04-22T13:20:44.195Z,1.45
2023-04-22T13:23:14.876Z,1.33
2023-04-22T13:25:42.705Z,1.30
2023-04-22T13:28:11.537Z,1.38
2023-04-22T13:30:39.946Z,1.63
2023-04-22T13:33:07.842Z,1.38
2023-04-22T13:35:36.305Z,1.20
2023-04-22T13:38:05.095Z,1.40
2023-04-22T13:40:34.329Z,1.20
2023-04-22T13:43:02.294Z,1.30
2023-04-22T13:45:30.219Z,1.30
2023-04-22T13:47:58.283Z,1.45
2023-04-22T13:50:26.039Z,1.40
2023-04-22T13:52:53.967Z,2.22
2023-04-22T13:55:21.795Z,1.70
2023-04-22T13:57:51.993Z,1.20
2023-04-22T14:00:20.878Z,1.40
2023-04-22T14:02:49.923Z,1.63
2023-04-22T14:05:18.107Z,1.70
2023-04-22T14:07:46.257Z,1.30
2023-04-22T14:10:14.234Z,1.65
2023-04-22T14:12:43.195Z,1.30
2023-04-22T14:15:12.718Z,1.33
2023-04-22T14:17:40.916Z,1.35
2023-04-22T14:20:10.820Z,1.60
2023-04-22T14:22:38.859Z,1.30
2023-04-22T14:25:08.162Z,1.55
2023-04-22T14:27:36.550Z,1.40
2023-04-22T14:30:05.919Z,1.42
2023-04-22T14:32:35.750Z,1.40
2023-04-22T14:35:03.617Z,1.40
2023-04-22T14:37:32.180Z,1.27
2023-04-22T14:40:00.047Z,1.60
2023-04-22T14:42:28.749Z,1.15
2023-04-22T14:44:56.627Z,1.45
2023-04-22T14:47:24.649Z,1.30
2023-04-22T14:49:53.865Z,1.50
2023-04-22T14:52:21.820Z,1.67
2023-04-22T14:54:51.801Z,1.50
2023-04-22T14:57:19.959Z,2.05
2023-04-22T14:59:47.907Z,1.65
2023-04-22T15:02:16.891Z,1.58
2023-04-22T15:04:45.245Z,1.75
2023-04-22T15:07:14.568Z,1.65
2023-04-22T15:09:42.890Z,1.92
2023-04-22T15:12:11.041Z,1.65
2023-04-22T15:14:39.226Z,2.00
2023-04-22T15:17:07.319Z,1.80
2023-04-22T15:19:35.309Z,1.48
2023-04-22T15:22:03.297Z,1.60
2023-04-22T15:24:32.525Z,2.10
2023-04-22T15:27:01.270Z,1.65
2023-04-22T15:29:29.438Z,1.70
2023-04-22T15:31:57.852Z,1.90
2023-04-22T15:34:26.105Z,2.00
2023-04-22T15:36:54.410Z,2.08
2023-04-22T15:39:22.374Z,1.80
2023-04-22T15:41:51.794Z,1.88
2023-04-22T15:44:19.648Z,1.77
2023-04-22T15:46:47.650Z,2.05
2023-04-22T15:49:16.690Z,2.00
2023-04-22T15:51:44.778Z,1.60
2023-04-22T15:54:13.373Z,1.90
2023-04-22T15:56:41.419Z,2.10
2023-04-22T15:59:10.674Z,2.15
2023-04-22T16:01:40.578Z,1.70
2023-04-22T16:04:08.909Z,1.90
2023-04-22T16:06:38.135Z,1.90
2023-04-22T16:09:06.105Z,1.75
2023-04-22T16:11:33.959Z,1.65
2023-04-22T16:14:01.784Z,1.77
2023-04-22T16:16:32.321Z,1.90
2023-04-22T16:19:00.274Z,1.90
2023-04-22T16:21:28.676Z,3.05
2023-04-22T16:23:56.622Z,2.00
2023-04-22T16:26:24.443Z,2.20
2023-04-22T16:28:54.845Z,2.15
2023-04-22T16:31:23.664Z,2.10
2023-04-22T16:33:53.097Z,2.05
2023-04-22T16:36:21.569Z,2.60
2023-04-22T16:38:49.450Z,2.47
2023-04-22T16:41:17.249Z,2.70
2023-04-22T16:43:45.311Z,2.17
2023-04-22T16:46:13.975Z,2.67
2023-04-22T16:48:41.792Z,2.40
2023-04-22T16:51:10.988Z,2.15
2023-04-22T16:53:38.914Z,2.38
2023-04-22T16:56:07.032Z,2.22
2023-04-22T16:58:34.996Z,2.20
2023-04-22T17:01:03.109Z,2.40
2023-04-22T17:03:31.151Z,2.80
2023-04-22T17:05:59.191Z,2.67
2023-04-22T17:08:29.035Z,3.30
2023-04-22T17:10:57.162Z,3.78
2023-04-22T17:13:24.916Z,2.97
2023-04-22T17:15:52.801Z,3.28
2023-04-22T17:18:20.624Z,3.50
2023-04-22T17:20:49.066Z,3.70
2023-04-22T17:23:17.564Z,3.78
2023-04-22T17:25:47.976Z,4.50
2023-04-22T17:28:15.941Z,5.50
2023-04-22T17:30:43.841Z,6.63
2023-04-22T17:33:11.712Z,6.95
2023-04-22T17:35:39.595Z,3.33
2023-04-22T17:38:07.442Z,3.65
2023-04-22T17:40:35.310Z,2.88
2023-04-22T17:43:04.741Z,2.60
2023-04-22T17:45:32.533Z,2.80
2023-04-22T17:48:00.442Z,2.38
2023-04-22T17:50:28.677Z,3.42
2023-04-22T17:52:56.466Z,2.63
2023-04-22T17:55:24.468Z,2.60
2023-04-22T17:57:52.311Z,2.70
2023-04-22T18:00:22.124Z,2.92
2023-04-22T18:02:50.102Z,2.50
2023-04-22T18:05:18.249Z,2.80
2023-04-22T18:07:46.205Z,2.63
2023-04-22T18:10:14.603Z,2.40
2023-04-22T18:12:42.459Z,2.97
2023-04-22T18:15:10.723Z,2.42
2023-04-22T18:17:40.256Z,3.10
2023-04-22T18:20:17.456Z,2.60
2023-04-22T18:22:47.562Z,2.40
2023-04-22T18:25:15.989Z,2.75
2023-04-22T18:27:43.753Z,2.78
2023-04-22T18:30:12.426Z,2.80
2023-04-22T18:32:41.712Z,2.30
2023-04-22T18:35:10.510Z,2.47
2023-04-22T18:37:38.939Z,2.80
2023-04-22T18:40:08.253Z,2.55
2023-04-22T18:42:36.382Z,2.42
2023-04-22T18:45:05.058Z,2.75
2023-04-22T18:47:33.396Z,3.53
2023-04-22T18:50:02.719Z,2.53
2023-04-22T18:52:30.674Z,2.92
2023-04-22T18:54:58.573Z,2.80
2023-04-22T18:57:26.505Z,2.80
2023-04-22T18:59:55.120Z,3.00
2023-04-22T19:02:23.162Z,2.53
2023-04-22T19:04:51.070Z,2.70
2023-04-22T19:07:20.814Z,2.70
2023-04-22T19:09:48.616Z,2.67
2023-04-22T19:12:19.023Z,2.60
2023-04-22T19:14:48.149Z,2.55
2023-04-22T19:17:16.002Z,2.50
2023-04-22T19:19:45.363Z,2.60
2023-04-22T19:22:13.683Z,2.35
2023-04-22T19:24:42.934Z,2.65
2023-04-22T19:27:12.491Z,2.53
2023-04-22T19:29:41.583Z,2.35
2023-04-22T19:32:09.835Z,2.20
2023-04-22T19:34:39.290Z,2.65
2023-04-22T19:37:09.546Z,2.53
2023-04-22T19:39:37.290Z,2.67
2023-04-22T19:42:06.817Z,2.20
2023-04-22T19:44:34.709Z,2.55
2023-04-22T19:47:02.603Z,2.17
2023-04-22T19:49:32.535Z,3.40
2023-04-22T19:52:02.730Z,2.80
2023-04-22T19:54:30.773Z,2.58
2023-04-22T19:57:00.197Z,2.50
2023-04-22T19:59:31.680Z,3.10
2023-04-22T20:02:00.237Z,3.03
2023-04-22T20:04:28.982Z,2.20
2023-04-22T20:06:58.994Z,2.38
2023-04-22T20:09:27.893Z,2.42
2023-04-22T20:11:55.918Z,3.30
2023-04-22T20:14:24.420Z,2.70
2023-04-22T20:16:54.409Z,2.65
2023-04-22T20:19:22.572Z,2.55
2023-04-22T20:21:53.299Z,2.78
2023-04-22T20:24:21.978Z,2.70
2023-04-22T20:26:49.954Z,2.40
2023-04-22T20:29:18.853Z,2.88
2023-04-22T20:31:47.010Z,2.85
2023-04-22T20:34:16.405Z,2.60
2023-04-22T20:36:44.347Z,2.63
2023-04-22T20:39:14.241Z,3.08
2023-04-22T20:41:42.612Z,2.75
2023-04-22T20:44:10.655Z,2.80
2023-04-22T20:46:38.894Z,2.78
2023-04-22T20:49:07.113Z,2.65
2023-04-22T20:51:36.490Z,3.10
2023-04-22T20:54:06.138Z,2.50
2023-04-22T20:56:37.735Z,2.70
2023-04-22T20:59:06.053Z,2.95
2023-04-22T21:01:34.260Z,3.10
2023-04-22T21:04:03.100Z,3.05
2023-04-22T21:06:33.951Z,3.28
2023-04-22T21:09:04.483Z,2.97
2023-04-22T21:11:32.808Z,2.83
2023-04-22T21:14:01.053Z,3.25
2023-04-22T21:16:31.683Z,2.85
2023-04-22T21:19:01.136Z,3.00
2023-04-22T21:21:33.674Z,2.95
2023-04-22T21:24:04.847Z,2.63
2023-04-22T21:26:34.061Z,3.08
2023-04-22T21:29:02.103Z,3.10
2023-04-22T21:31:30.044Z,3.20
2023-04-22T21:33:58.240Z,2.80
2023-04-22T21:36:26.615Z,2.85
2023-04-22T21:38:54.936Z,3.05
2023-04-22T21:41:24.821Z,2.67
2023-04-22T21:43:52.643Z,2.78
2023-04-22T21:46:22.095Z,2.88
2023-04-22T21:48:50.943Z,2.80
2023-04-22T21:51:18.977Z,2.70
2023-04-22T21:53:47.092Z,2.60
2023-04-22T21:56:15.073Z,2.53
2023-04-22T21:58:44.281Z,2.70
2023-04-22T22:01:12.070Z,2.47
2023-04-22T22:03:40.047Z,2.90
2023-04-22T22:06:08.237Z,2.83
2023-04-22T22:08:36.151Z,2.67
2023-04-22T22:11:07.042Z,3.70
2023-04-22T22:13:35.917Z,2.78
2023-04-22T22:16:05.254Z,3.28
2023-04-22T22:18:33.110Z,2.95
2023-04-22T22:21:00.956Z,2.47
2023-04-22T22:23:28.660Z,2.85
2023-04-22T22:25:56.406Z,2.63
2023-04-22T22:28:24.219Z,2.85
2023-04-22T22:30:52.079Z,2.60
2023-04-22T22:33:21.431Z,2.92
2023-04-22T22:35:49.366Z,2.90
2023-04-22T22:38:17.469Z,2.75
2023-04-22T22:40:45.509Z,2.83
2023-04-22T22:43:13.540Z,2.70
2023-04-22T22:45:41.647Z,3.30
2023-04-22T22:48:09.567Z,2.67
2023-04-22T22:50:38.950Z,2.60
2023-04-22T22:53:06.840Z,2.83
2023-04-22T22:55:34.866Z,3.05
2023-04-22T22:58:02.686Z,2.92
2023-04-22T23:00:30.542Z,2.88
2023-04-22T23:02:59.393Z,3.05
2023-04-22T23:05:27.394Z,2.58
2023-04-22T23:07:56.500Z,2.92
2023-04-22T23:10:24.560Z,2.92
2023-04-22T23:12:52.433Z,3.20
2023-04-22T23:15:20.324Z,2.95
2023-04-22T23:17:48.343Z,2.92
2023-04-22T23:20:17.099Z,3.45
2023-04-22T23:22:46.293Z,3.50
2023-04-22T23:25:17.472Z,3.28
2023-04-22T23:27:46.005Z,3.03
2023-04-22T23:30:14.642Z,3.80
2023-04-22T23:32:44.569Z,3.20
2023-04-22T23:35:14.196Z,3.53
2023-04-22T23:37:45.216Z,3.38
2023-04-22T23:40:15.103Z,3.45
2023-04-22T23:42:43.348Z,4.15
2023-04-22T23:45:12.261Z,3.50
2023-04-22T23:47:40.245Z,3.35
2023-04-22T23:50:10.346Z,3.58
2023-04-22T23:52:41.220Z,3.88
2023-04-22T23:55:10.880Z,3.42
2023-04-22T23:57:40.800Z,3.05
